createdAt,value
2022-09-15T00:02:15.953Z,9.33
2022-09-15T00:04:42.078Z,4.90
2022-09-15T00:07:08.140Z,4.80
2022-09-15T00:09:35.120Z,5.20
2022-09-15T00:12:01.347Z,5.57
2022-09-15T00:14:27.344Z,6.23
2022-09-15T00:16:53.515Z,6.53
2022-09-15T00:19:19.602Z,5.60
2022-09-15T00:21:45.977Z,11.67
2022-09-15T00:24:11.986Z,8.73
2022-09-15T00:26:38.097Z,6.60
2022-09-15T00:29:04.670Z,9.40
2022-09-15T00:31:31.596Z,10.43
2022-09-15T00:34:01.801Z,8.13
2022-09-15T00:36:28.107Z,7.40
2022-09-15T00:38:54.447Z,9.00
2022-09-15T00:41:22.077Z,14.43
2022-09-15T00:44:02.914Z,7.90
2022-09-15T00:46:30.760Z,6.50
2022-09-15T00:49:16.341Z,7.00
2022-09-15T00:51:45.284Z,7.40
2022-09-15T00:54:15.672Z,7.00
2022-09-15T00:56:42.708Z,9.77
2022-09-15T00:59:13.618Z,7.63
2022-09-15T01:01:40.247Z,7.57
2022-09-15T01:04:06.352Z,8.80
2022-09-15T01:06:35.802Z,8.47
2022-09-15T01:09:31.154Z,8.50
2022-09-15T01:11:57.409Z,9.00
2022-09-15T01:14:23.536Z,15.80
2022-09-15T01:17:19.690Z,14.80
2022-09-15T01:20:07.569Z,7.23
2022-09-15T01:22:42.647Z,8.37
2022-09-15T01:25:41.173Z,31.83
2022-09-15T01:28:51.940Z,10.17
2022-09-15T01:31:27.057Z,9.17
2022-09-15T01:34:07.268Z,11.63
2022-09-15T01:36:46.881Z,9.90
2022-09-15T01:39:16.397Z,19.53
2022-09-15T01:41:46.198Z,17.73
2022-09-15T01:44:24.262Z,12.83
2022-09-15T01:46:56.392Z,12.90
2022-09-15T01:49:25.763Z,14.90
2022-09-15T01:51:53.858Z,20.00
2022-09-15T01:54:23.726Z,13.80
2022-09-15T01:56:49.740Z,16.40
2022-09-15T01:59:15.801Z,12.63
2022-09-15T02:01:48.946Z,15.33
2022-09-15T02:04:27.193Z,16.37
2022-09-15T02:07:13.425Z,14.40
2022-09-15T02:10:10.714Z,13.23
2022-09-15T02:12:50.031Z,14.10
2022-09-15T02:15:32.633Z,15.63
2022-09-15T02:18:00.776Z,15.73
2022-09-15T02:20:33.519Z,20.50
2022-09-15T02:23:07.700Z,17.70
2022-09-15T02:25:40.287Z,23.50
2022-09-15T02:28:08.034Z,21.83
2022-09-15T02:30:39.776Z,23.90
2022-09-15T02:33:08.105Z,19.57
2022-09-15T02:35:35.597Z,16.73
2022-09-15T02:38:04.587Z,21.97
2022-09-15T02:40:31.626Z,20.63
2022-09-15T02:43:04.803Z,25.17
2022-09-15T02:45:31.434Z,21.33
2022-09-15T02:47:58.299Z,23.93
2022-09-15T02:50:27.494Z,26.27
2022-09-15T02:52:54.870Z,32.37
2022-09-15T02:55:21.303Z,28.97
2022-09-15T02:57:47.335Z,23.07
2022-09-15T03:00:14.299Z,21.13
2022-09-15T03:02:43.036Z,22.87
2022-09-15T03:05:12.382Z,20.00
2022-09-15T03:07:38.692Z,19.13
2022-09-15T03:10:05.922Z,19.60
2022-09-15T03:12:37.496Z,23.83
2022-09-15T03:15:03.935Z,20.33
2022-09-15T03:17:33.941Z,20.93
2022-09-15T03:20:00.228Z,35.00
2022-09-15T03:22:26.234Z,21.10
2022-09-15T03:24:52.370Z,19.80
2022-09-15T03:27:18.387Z,22.73
2022-09-15T03:29:44.380Z,20.13
2022-09-15T03:32:10.407Z,18.07
2022-09-15T03:34:36.623Z,22.17
2022-09-15T03:37:02.740Z,16.20
2022-09-15T03:39:28.768Z,14.57
2022-09-15T03:41:54.894Z,16.20
2022-09-15T03:44:21.016Z,17.90
2022-09-15T03:46:47.014Z,16.97
2022-09-15T03:49:13.016Z,13.43
2022-09-15T03:51:39.042Z,15.07
2022-09-15T03:54:05.107Z,14.40
2022-09-15T03:56:32.196Z,13.93
2022-09-15T03:59:00.843Z,17.73
2022-09-15T04:01:27.787Z,15.87
2022-09-15T04:03:53.917Z,16.93
2022-09-15T04:06:21.557Z,18.80
2022-09-15T04:08:48.540Z,14.77
2022-09-15T04:11:14.602Z,13.07
2022-09-15T04:13:41.732Z,14.03
2022-09-15T04:16:10.444Z,13.20
2022-09-15T04:18:36.633Z,15.50
2022-09-15T04:21:05.991Z,16.33
2022-09-15T04:23:32.759Z,16.47
2022-09-15T04:26:04.610Z,14.10
2022-09-15T04:28:36.197Z,15.13
2022-09-15T04:31:07.685Z,21.00
2022-09-15T04:33:34.285Z,24.70
2022-09-15T04:36:05.219Z,18.33
2022-09-15T04:38:31.311Z,20.33
2022-09-15T04:40:58.126Z,17.27
2022-09-15T04:43:27.616Z,19.43
2022-09-15T04:45:54.291Z,16.50
2022-09-15T04:48:21.309Z,15.53
2022-09-15T04:50:47.610Z,19.20
2022-09-15T04:53:13.670Z,17.90
2022-09-15T04:55:40.146Z,20.30
2022-09-15T04:58:06.826Z,17.47
2022-09-15T05:00:38.862Z,18.40
2022-09-15T05:03:04.874Z,17.90
2022-09-15T05:05:33.212Z,23.60
2022-09-15T05:08:00.230Z,20.80
2022-09-15T05:10:26.418Z,21.43
2022-09-15T05:12:53.307Z,18.17
2022-09-15T05:15:19.395Z,26.80
2022-09-15T05:17:45.581Z,30.50
2022-09-15T05:20:11.590Z,28.33
2022-09-15T05:22:41.689Z,18.77
2022-09-15T05:25:08.413Z,24.00
2022-09-15T05:27:34.411Z,18.90
2022-09-15T05:30:23.446Z,21.57
2022-09-15T05:32:46.399Z,22.40
2022-09-15T05:35:12.656Z,20.40
2022-09-15T05:37:38.650Z,27.10
2022-09-15T05:40:08.495Z,27.73
2022-09-15T05:42:34.868Z,31.30
2022-09-15T05:45:01.082Z,25.47
2022-09-15T05:47:27.066Z,32.23
2022-09-15T05:49:54.179Z,28.33
2022-09-15T05:52:20.163Z,26.50
2022-09-15T05:54:46.730Z,22.50
2022-09-15T05:57:12.749Z,25.90
2022-09-15T05:59:38.768Z,23.00
2022-09-15T06:02:04.973Z,28.13
2022-09-15T06:04:30.998Z,25.83
2022-09-15T06:06:56.980Z,25.70
2022-09-15T06:09:22.966Z,22.97
2022-09-15T06:11:49.030Z,25.87
2022-09-15T06:14:15.395Z,23.17
2022-09-15T06:16:41.403Z,20.73
2022-09-15T06:19:07.474Z,23.00
2022-09-15T06:21:33.647Z,20.70
2022-09-15T06:24:02.798Z,28.10
2022-09-15T06:26:28.780Z,19.37
2022-09-15T06:28:55.713Z,21.50
2022-09-15T06:31:22.625Z,24.77
2022-09-15T06:33:50.467Z,19.83
2022-09-15T06:36:17.391Z,22.37
2022-09-15T06:38:44.501Z,20.97
2022-09-15T06:41:11.113Z,20.60
2022-09-15T06:43:37.640Z,26.20
2022-09-15T06:46:09.224Z,31.07
2022-09-15T06:48:36.527Z,28.57
2022-09-15T06:51:03.338Z,27.73
2022-09-15T06:53:33.403Z,23.90
2022-09-15T06:56:06.921Z,24.87
2022-09-15T06:58:37.530Z,22.33
2022-09-15T07:01:08.044Z,26.43
2022-09-15T07:03:34.214Z,23.00
2022-09-15T07:06:00.352Z,24.60
2022-09-15T07:08:26.516Z,25.40
2022-09-15T07:10:52.735Z,22.57
2022-09-15T07:13:18.744Z,16.17
2022-09-15T07:15:52.726Z,19.00
2022-09-15T07:18:19.025Z,22.40
2022-09-15T07:20:45.099Z,19.07
2022-09-15T07:23:11.099Z,20.37
2022-09-15T07:25:37.095Z,18.10
2022-09-15T07:28:03.174Z,29.23
2022-09-15T07:30:29.210Z,22.10
2022-09-15T07:32:55.200Z,16.80
2022-09-15T07:35:21.219Z,15.03
2022-09-15T07:37:51.281Z,17.30
2022-09-15T07:40:17.599Z,19.50
2022-09-15T07:42:44.109Z,18.43
2022-09-15T07:45:10.911Z,19.90
2022-09-15T07:47:37.348Z,12.43
2022-09-15T07:50:04.899Z,32.70
2022-09-15T07:52:31.213Z,8.20
2022-09-15T07:54:57.311Z,7.60
2022-09-15T07:57:23.353Z,7.30
2022-09-15T07:59:49.346Z,8.20
2022-09-15T08:02:17.347Z,6.67
2022-09-15T08:04:43.783Z,9.97
2022-09-15T08:07:10.604Z,7.17
2022-09-15T08:09:37.516Z,6.07
2022-09-15T08:12:04.501Z,6.33
2022-09-15T08:14:32.060Z,7.10
2022-09-15T08:17:06.053Z,6.43
2022-09-15T08:19:34.780Z,7.17
2022-09-15T08:22:01.272Z,10.93
2022-09-15T08:24:28.149Z,8.43
2022-09-15T08:26:54.498Z,8.50
2022-09-15T08:29:20.746Z,7.73
2022-09-15T08:31:47.498Z,7.00
2022-09-15T08:34:15.740Z,7.87
2022-09-15T08:36:42.419Z,6.40
2022-09-15T08:39:08.724Z,9.27
2022-09-15T08:41:37.833Z,8.50
2022-09-15T08:44:27.073Z,11.93
2022-09-15T08:46:59.353Z,10.40
2022-09-15T08:49:47.803Z,15.67
2022-09-15T08:52:20.432Z,9.20
2022-09-15T08:54:46.491Z,9.40
2022-09-15T08:57:16.262Z,12.87
2022-09-15T08:59:42.631Z,9.50
2022-09-15T09:02:11.659Z,16.57
2022-09-15T09:05:08.257Z,16.13
2022-09-15T09:08:09.903Z,10.70
2022-09-15T09:10:52.035Z,16.23
2022-09-15T09:13:43.222Z,11.83
2022-09-15T09:16:25.898Z,16.70
2022-09-15T09:19:20.577Z,12.53
2022-09-15T09:21:51.844Z,10.70
2022-09-15T09:24:40.375Z,12.93
2022-09-15T09:27:12.613Z,11.80
2022-09-15T09:29:49.923Z,11.47
2022-09-15T09:32:21.754Z,11.53
2022-09-15T09:35:03.092Z,12.70
2022-09-15T09:37:29.372Z,9.93
2022-09-15T09:39:55.478Z,12.83
2022-09-15T09:42:30.793Z,8.97
2022-09-15T09:44:56.847Z,13.40
2022-09-15T09:47:31.703Z,10.23
2022-09-15T09:49:59.081Z,9.10
2022-09-15T09:52:33.455Z,7.53
2022-09-15T09:55:01.540Z,9.70
2022-09-15T09:57:30.225Z,6.37
2022-09-15T09:59:56.508Z,5.10
2022-09-15T10:02:26.661Z,4.90
2022-09-15T10:05:01.842Z,5.40
2022-09-15T10:07:28.028Z,5.73
2022-09-15T10:09:59.477Z,7.53
2022-09-15T10:12:32.372Z,9.63
2022-09-15T10:15:03.822Z,13.57
2022-09-15T10:17:35.889Z,6.50
2022-09-15T10:20:03.496Z,4.87
2022-09-15T10:22:38.765Z,5.07
2022-09-15T10:25:20.025Z,5.57
2022-09-15T10:28:07.975Z,4.80
2022-09-15T10:30:35.128Z,5.17
2022-09-15T10:33:23.907Z,3.10
2022-09-15T10:35:50.115Z,2.90
2022-09-15T10:38:19.410Z,2.00
2022-09-15T10:40:57.282Z,2.37
2022-09-15T10:43:45.057Z,4.17
2022-09-15T10:46:25.222Z,2.43
2022-09-15T10:49:27.824Z,2.50
2022-09-15T10:52:04.107Z,4.30
2022-09-15T10:54:55.159Z,6.07
2022-09-15T10:57:44.210Z,1.70
2022-09-15T11:00:12.201Z,1.60
2022-09-15T11:02:54.613Z,1.80
2022-09-15T11:05:35.641Z,2.30
2022-09-15T11:08:16.724Z,2.67
2022-09-15T11:11:11.974Z,4.37
2022-09-15T11:14:16.650Z,4.30
2022-09-15T11:16:54.071Z,5.00
2022-09-15T11:19:29.574Z,1.93
2022-09-15T11:22:10.774Z,2.33
2022-09-15T11:24:50.065Z,3.47
2022-09-15T11:27:28.792Z,3.57
2022-09-15T11:30:07.297Z,2.13
2022-09-15T11:32:44.195Z,3.50
2022-09-15T11:35:25.774Z,4.20
2022-09-15T11:37:56.005Z,3.13
2022-09-15T11:40:28.868Z,6.83
2022-09-15T11:43:00.039Z,6.07
2022-09-15T11:45:28.640Z,2.50
2022-09-15T11:48:10.764Z,3.73
2022-09-15T11:50:39.651Z,4.93
2022-09-15T11:53:16.043Z,2.60
2022-09-15T11:55:52.788Z,2.73
2022-09-15T11:58:57.322Z,2.70
2022-09-15T12:01:27.037Z,1.30
2022-09-15T12:04:01.517Z,1.70
2022-09-15T12:06:33.530Z,3.23
2022-09-15T12:09:06.896Z,1.53
2022-09-15T12:11:36.220Z,1.57
2022-09-15T12:14:03.441Z,2.87
2022-09-15T12:16:29.842Z,2.70
2022-09-15T12:19:01.560Z,2.07
2022-09-15T12:21:38.647Z,4.13
2022-09-15T12:24:10.335Z,1.87
2022-09-15T12:26:37.277Z,4.70
2022-09-15T12:29:21.676Z,1.60
2022-09-15T12:31:47.743Z,3.90
2022-09-15T12:34:33.524Z,3.80
2022-09-15T12:37:14.731Z,2.73
2022-09-15T12:39:42.415Z,4.40
2022-09-15T12:42:44.330Z,4.47
2022-09-15T12:45:22.818Z,2.53
2022-09-15T12:48:18.035Z,9.23
2022-09-15T12:50:52.769Z,2.33
2022-09-15T12:53:46.215Z,1.20
2022-09-15T12:56:23.775Z,5.57
2022-09-15T12:58:50.550Z,1.53
2022-09-15T13:01:22.834Z,1.60
2022-09-15T13:03:48.896Z,3.33
2022-09-15T13:06:24.601Z,6.60
2022-09-15T13:09:05.752Z,1.63
2022-09-15T13:11:37.696Z,2.67
2022-09-15T13:14:05.915Z,5.63
2022-09-15T13:16:40.374Z,2.33
2022-09-15T13:19:12.710Z,3.73
2022-09-15T13:21:41.565Z,4.50
2022-09-15T13:24:16.410Z,3.30
2022-09-15T13:26:44.045Z,1.87
2022-09-15T13:29:14.608Z,3.00
2022-09-15T13:31:52.682Z,1.30
2022-09-15T13:40:37.480Z,1.37
2022-09-15T13:43:49.751Z,3.87
2022-09-15T13:46:28.155Z,1.60
2022-09-15T13:49:00.748Z,1.50
2022-09-15T13:51:28.436Z,1.90
2022-09-15T13:53:58.904Z,2.53
2022-09-15T13:56:29.270Z,1.60
2022-09-15T13:59:05.119Z,4.23
2022-09-15T14:01:38.218Z,3.20
2022-09-15T14:04:06.870Z,3.30
2022-09-15T14:06:36.566Z,2.20
2022-09-15T14:09:09.085Z,2.37
2022-09-15T14:11:36.372Z,4.50
2022-09-15T14:14:45.162Z,1.80
2022-09-15T14:17:27.949Z,2.73
2022-09-15T14:19:59.017Z,5.17
2022-09-15T14:22:32.869Z,2.37
2022-09-15T14:25:04.296Z,2.90
2022-09-15T14:27:34.030Z,2.60
2022-09-15T14:30:07.844Z,3.57
2022-09-15T14:32:39.158Z,2.57
2022-09-15T14:35:07.484Z,3.80
2022-09-15T14:37:34.049Z,3.10
2022-09-15T14:40:02.246Z,2.00
2022-09-15T14:42:31.705Z,8.93
2022-09-15T14:45:57.895Z,5.13
2022-09-15T14:48:27.415Z,3.67
2022-09-15T14:50:59.889Z,2.03
2022-09-15T14:53:27.472Z,1.60
2022-09-15T14:56:19.310Z,4.13
2022-09-15T14:58:54.082Z,4.43
2022-09-15T15:01:58.830Z,1.60
2022-09-15T15:04:27.623Z,2.50
2022-09-15T15:07:04.142Z,1.83
2022-09-15T15:09:46.385Z,1.77
2022-09-15T15:12:23.311Z,3.30
2022-09-15T15:14:51.661Z,1.50
2022-09-15T15:17:26.062Z,1.70
2022-09-15T15:20:13.364Z,3.40
2022-09-15T15:22:41.505Z,1.83
2022-09-15T15:25:26.789Z,9.50
2022-09-15T15:27:54.483Z,3.20
2022-09-15T15:30:28.769Z,1.10
2022-09-15T15:33:19.466Z,1.00
2022-09-15T15:35:46.540Z,1.30
2022-09-15T15:38:17.496Z,2.80
2022-09-15T15:40:44.422Z,3.27
2022-09-15T15:43:20.368Z,1.40
2022-09-15T15:46:01.233Z,2.00
2022-09-15T15:48:33.983Z,2.17
2022-09-15T15:51:03.844Z,4.60
2022-09-15T15:53:29.892Z,2.63
2022-09-15T15:55:57.133Z,2.47
2022-09-15T15:58:23.214Z,2.90
2022-09-15T16:00:51.697Z,2.33
2022-09-15T16:03:18.831Z,1.17
2022-09-15T16:05:46.662Z,1.50
2022-09-15T16:08:33.270Z,3.90
2022-09-15T16:11:00.848Z,2.80
2022-09-15T16:13:27.767Z,3.20
2022-09-15T16:15:55.975Z,3.47
2022-09-15T16:18:22.001Z,1.10
2022-09-15T16:20:48.011Z,5.10
2022-09-15T16:23:16.095Z,2.40
2022-09-15T16:25:47.383Z,3.60
2022-09-15T16:28:13.818Z,6.50
2022-09-15T16:30:40.168Z,1.70
2022-09-15T16:33:06.210Z,1.73
2022-09-15T16:35:45.289Z,1.30
2022-09-15T16:38:11.444Z,7.63
2022-09-15T16:40:37.608Z,4.63
2022-09-15T16:43:09.376Z,2.80
2022-09-15T16:45:39.952Z,4.80
2022-09-15T16:48:08.110Z,2.53
2022-09-15T16:50:34.605Z,3.43
2022-09-15T16:53:00.681Z,5.10
2022-09-15T16:55:31.491Z,5.70
2022-09-15T16:57:59.147Z,5.63
2022-09-15T17:00:26.926Z,13.03
2022-09-15T17:02:52.962Z,3.93
2022-09-15T17:05:32.211Z,2.83
2022-09-15T17:07:58.226Z,5.10
2022-09-15T17:10:24.312Z,3.80
2022-09-15T17:12:50.477Z,2.90
2022-09-15T17:15:37.104Z,1.33
2022-09-15T17:18:04.816Z,2.60
2022-09-15T17:20:33.758Z,3.30
2022-09-15T17:23:02.035Z,2.30
2022-09-15T17:25:35.183Z,4.70
2022-09-15T17:28:01.737Z,2.27
2022-09-15T17:30:30.104Z,2.73
2022-09-15T17:33:12.143Z,3.83
2022-09-15T17:35:38.367Z,1.70
2022-09-15T17:38:05.248Z,6.73
2022-09-15T17:40:32.286Z,4.03
2022-09-15T17:42:59.880Z,2.33
2022-09-15T17:45:35.891Z,2.17
2022-09-15T17:48:03.309Z,2.13
2022-09-15T17:50:31.460Z,4.00
2022-09-15T17:52:58.024Z,2.80
2022-09-15T17:55:29.709Z,6.47
2022-09-15T17:57:57.222Z,2.37
2022-09-15T18:00:24.532Z,2.53
2022-09-15T18:02:52.851Z,3.97
2022-09-15T18:05:33.344Z,3.33
2022-09-15T18:08:02.378Z,7.40
2022-09-15T18:10:29.776Z,3.50
2022-09-15T18:12:56.570Z,12.33
2022-09-15T18:15:25.412Z,3.10
2022-09-15T18:17:53.359Z,1.23
2022-09-15T18:20:22.559Z,1.50
2022-09-15T18:22:49.163Z,2.03
2022-09-15T18:25:26.490Z,2.87
2022-09-15T18:27:52.748Z,1.53
2022-09-15T18:30:20.447Z,2.47
2022-09-15T18:32:47.185Z,4.33
2022-09-15T18:35:18.646Z,2.73
2022-09-15T18:37:47.280Z,3.23
2022-09-15T18:40:16.163Z,2.80
2022-09-15T18:42:42.260Z,1.73
2022-09-15T18:45:10.920Z,4.03
2022-09-15T18:47:37.209Z,3.83
2022-09-15T18:50:05.826Z,3.00
2022-09-15T18:52:35.897Z,2.13
2022-09-15T18:55:02.793Z,4.80
2022-09-15T18:57:28.841Z,3.20
2022-09-15T18:59:54.863Z,2.27
2022-09-15T19:02:20.928Z,3.80
2022-09-15T19:04:46.975Z,2.50
2022-09-15T19:07:13.047Z,2.00
2022-09-15T19:09:39.204Z,2.40
2022-09-15T19:12:05.351Z,3.00
2022-09-15T19:14:31.390Z,2.17
2022-09-15T19:16:58.573Z,1.47
2022-09-15T19:19:25.127Z,1.70
2022-09-15T19:21:51.230Z,3.43
2022-09-15T19:24:17.653Z,2.00
2022-09-15T19:26:45.980Z,4.40
2022-09-15T19:29:12.711Z,5.53
2022-09-15T19:31:42.016Z,1.93
2022-09-15T19:34:08.485Z,6.90
2022-09-15T19:36:34.730Z,3.57
2022-09-15T19:39:02.537Z,3.10
2022-09-15T19:41:29.391Z,1.80
2022-09-15T19:43:55.617Z,1.80
2022-09-15T19:46:24.035Z,2.93
2022-09-15T19:48:51.355Z,1.33
2022-09-15T19:51:18.633Z,2.60
2022-09-15T19:53:46.650Z,2.50
2022-09-15T19:56:14.913Z,2.77
2022-09-15T19:58:41.034Z,2.10
2022-09-15T20:01:08.626Z,2.23
2022-09-15T20:03:34.670Z,5.30
2022-09-15T20:06:04.351Z,4.80
2022-09-15T20:08:30.539Z,2.07
2022-09-15T20:10:56.560Z,3.00
2022-09-15T20:13:22.631Z,4.60
2022-09-15T20:15:59.339Z,5.23
2022-09-15T20:18:25.936Z,6.23
2022-09-15T20:20:52.759Z,4.03
2022-09-15T20:23:19.581Z,4.13
2022-09-15T20:25:59.043Z,8.20
2022-09-15T20:28:25.808Z,5.10
2022-09-15T20:31:22.268Z,4.40
2022-09-15T20:33:49.246Z,3.00
2022-09-15T20:36:20.913Z,2.53
2022-09-15T20:38:47.098Z,1.50
2022-09-15T20:41:14.536Z,1.60
2022-09-15T20:43:41.751Z,5.93
2022-09-15T20:46:12.674Z,1.90
2022-09-15T20:48:39.005Z,1.20
2022-09-15T20:51:11.112Z,1.97
2022-09-15T20:53:38.942Z,3.20
2022-09-15T20:56:05.136Z,1.97
2022-09-15T20:58:35.559Z,7.40
2022-09-15T21:01:12.253Z,2.00
2022-09-15T21:03:40.092Z,8.00
2022-09-15T21:06:08.553Z,9.33
2022-09-15T21:08:35.258Z,4.33
2022-09-15T21:11:02.493Z,4.20
2022-09-15T21:13:30.167Z,1.53
2022-09-15T21:16:01.496Z,2.37
2022-09-15T21:18:33.124Z,6.93
2022-09-15T21:21:01.925Z,3.30
2022-09-15T21:23:41.962Z,6.20
2022-09-15T21:26:13.729Z,1.20
2022-09-15T21:28:40.556Z,1.20
2022-09-15T21:31:11.391Z,2.27
2022-09-15T21:33:38.129Z,2.77
2022-09-15T21:36:17.878Z,2.43
2022-09-15T21:38:44.326Z,1.77
2022-09-15T21:41:13.031Z,1.80
2022-09-15T21:43:40.323Z,1.77
2022-09-15T21:46:09.037Z,2.23
2022-09-15T21:48:35.170Z,4.70
2022-09-15T21:51:02.311Z,2.00
2022-09-15T21:53:28.652Z,1.20
2022-09-15T21:55:55.855Z,3.20
2022-09-15T21:58:25.898Z,3.50
2022-09-15T22:00:52.547Z,1.87
2022-09-15T22:03:18.606Z,2.73
2022-09-15T22:05:46.144Z,2.27
2022-09-15T22:08:15.920Z,3.00
2022-09-15T22:10:42.978Z,2.67
2022-09-15T22:13:10.382Z,1.20
2022-09-15T22:15:36.921Z,2.70
2022-09-15T22:18:03.522Z,5.27
2022-09-15T22:20:29.590Z,2.10
2022-09-15T22:22:56.148Z,1.93
2022-09-15T22:25:22.211Z,2.50
2022-09-15T22:27:48.317Z,2.10
2022-09-15T22:30:14.363Z,1.30
2022-09-15T22:32:40.386Z,2.10
2022-09-15T22:35:06.941Z,2.27
2022-09-15T22:37:33.392Z,1.77
2022-09-15T22:39:59.674Z,1.90
2022-09-15T22:42:26.265Z,1.73
2022-09-15T22:44:52.342Z,1.73
2022-09-15T22:47:18.412Z,2.53
2022-09-15T22:49:44.417Z,1.40
2022-09-15T22:52:10.636Z,3.23
2022-09-15T22:54:36.689Z,2.63
2022-09-15T22:57:02.834Z,2.97
2022-09-15T22:59:28.851Z,1.60
2022-09-15T23:01:54.919Z,1.70
2022-09-15T23:04:20.995Z,2.80
2022-09-15T23:06:48.358Z,1.30
2022-09-15T23:09:14.718Z,3.37
2022-09-15T23:11:41.171Z,1.93
2022-09-15T23:14:12.995Z,3.30
2022-09-15T23:16:39.384Z,1.40
2022-09-15T23:19:06.142Z,4.83
2022-09-15T23:21:32.552Z,1.73
2022-09-15T23:23:58.741Z,1.80
2022-09-15T23:26:26.051Z,1.77
2022-09-15T23:28:52.737Z,2.17
2022-09-15T23:31:19.131Z,4.57
2022-09-15T23:33:45.548Z,3.83
2022-09-15T23:36:14.169Z,1.10
2022-09-15T23:38:42.402Z,1.90
2022-09-15T23:41:09.886Z,2.70
2022-09-15T23:43:36.110Z,1.50
2022-09-15T23:46:03.090Z,3.70
2022-09-15T23:48:30.926Z,2.70
2022-09-15T23:50:57.594Z,1.27
2022-09-15T23:53:23.637Z,2.50
2022-09-15T23:55:49.840Z,3.23
2022-09-15T23:58:16.487Z,3.17
